sensor_id;sensor_type;location;lat;lon;timestamp;P1;durP1;ratioP1;P2;durP2;ratioP2
23745;SDS011;12053;48.878;9.632;2023-01-09T00:00:26;15.02;;;11.38;;
23745;SDS011;12053;48.878;9.632;2023-01-09T00:02:53;14.43;;;10.15;;
23745;SDS011;12053;48.878;9.632;2023-01-09T00:05:21;14.07;;;9.82;;
23745;SDS011;12053;48.878;9.632;2023-01-09T00:07:48;13.40;;;9.95;;
23745;SDS011;12053;48.878;9.632;2023-01-09T00:10:15;12.35;;;9.95;;
23745;SDS011;12053;48.878;9.632;2023-01-09T00:12:42;15.65;;;10.65;;
23745;SDS011;12053;48.878;9.632;2023-01-09T00:15:10;14.07;;;10.40;;
23745;SDS011;12053;48.878;9.632;2023-01-09T00:17:37;11.35;;;8.60;;
23745;SDS011;12053;48.878;9.632;2023-01-09T00:20:05;12.85;;;9.43;;
23745;SDS011;12053;48.878;9.632;2023-01-09T00:22:35;10.65;;;8.40;;
23745;SDS011;12053;48.878;9.632;2023-01-09T00:25:02;10.88;;;8.40;;
23745;SDS011;12053;48.878;9.632;2023-01-09T00:27:30;9.77;;;6.97;;
23745;SDS011;12053;48.878;9.632;2023-01-09T00:29:57;10.52;;;7.80;;
23745;SDS011;12053;48.878;9.632;2023-01-09T00:32:25;9.40;;;7.40;;
23745;SDS011;12053;48.878;9.632;2023-01-09T00:34:53;8.95;;;6.60;;
23745;SDS011;12053;48.878;9.632;2023-01-09T00:37:20;9.98;;;7.22;;
23745;SDS011;12053;48.878;9.632;2023-01-09T00:39:48;9.10;;;6.22;;
23745;SDS011;12053;48.878;9.632;2023-01-09T00:42:16;8.77;;;6.90;;
23745;SDS011;12053;48.878;9.632;2023-01-09T00:44:54;7.50;;;6.10;;
23745;SDS011;12053;48.878;9.632;2023-01-09T00:47:34;7.70;;;6.13;;
23745;SDS011;12053;48.878;9.632;2023-01-09T00:50:04;10.05;;;5.40;;
23745;SDS011;12053;48.878;9.632;2023-01-09T00:52:32;7.95;;;5.22;;
23745;SDS011;12053;48.878;9.632;2023-01-09T00:55:01;6.13;;;4.70;;
23745;SDS011;12053;48.878;9.632;2023-01-09T00:57:28;5.78;;;4.53;;
23745;SDS011;12053;48.878;9.632;2023-01-09T00:59:55;4.85;;;3.92;;
23745;SDS011;12053;48.878;9.632;2023-01-09T01:02:23;5.05;;;3.90;;
23745;SDS011;12053;48.878;9.632;2023-01-09T01:04:51;4.63;;;3.40;;
23745;SDS011;12053;48.878;9.632;2023-01-09T01:07:36;5.78;;;3.85;;
23745;SDS011;12053;48.878;9.632;2023-01-09T01:10:11;3.83;;;3.42;;
23745;SDS011;12053;48.878;9.632;2023-01-09T01:12:39;4.47;;;3.83;;
23745;SDS011;12053;48.878;9.632;2023-01-09T01:15:06;5.30;;;3.55;;
23745;SDS011;12053;48.878;9.632;2023-01-09T01:17:34;4.35;;;3.42;;
23745;SDS011;12053;48.878;9.632;2023-01-09T01:20:06;4.38;;;3.85;;
23745;SDS011;12053;48.878;9.632;2023-01-09T01:22:34;4.43;;;3.97;;
23745;SDS011;12053;48.878;9.632;2023-01-09T01:25:01;4.22;;;3.40;;
23745;SDS011;12053;48.878;9.632;2023-01-09T01:27:29;7.13;;;4.07;;
23745;SDS011;12053;48.878;9.632;2023-01-09T01:29:56;4.82;;;3.72;;
23745;SDS011;12053;48.878;9.632;2023-01-09T01:32:23;4.82;;;3.75;;
23745;SDS011;12053;48.878;9.632;2023-01-09T01:34:50;6.40;;;4.18;;
23745;SDS011;12053;48.878;9.632;2023-01-09T01:37:17;3.80;;;3.38;;
23745;SDS011;12053;48.878;9.632;2023-01-09T01:39:46;3.35;;;3.03;;
23745;SDS011;12053;48.878;9.632;2023-01-09T01:42:14;4.70;;;3.30;;
23745;SDS011;12053;48.878;9.632;2023-01-09T01:47:27;3.55;;;3.00;;
23745;SDS011;12053;48.878;9.632;2023-01-09T01:49:55;3.95;;;2.90;;
23745;SDS011;12053;48.878;9.632;2023-01-09T01:52:22;3.10;;;2.55;;
23745;SDS011;12053;48.878;9.632;2023-01-09T01:54:50;3.03;;;2.25;;
23745;SDS011;12053;48.878;9.632;2023-01-09T01:57:18;2.63;;;2.17;;
23745;SDS011;12053;48.878;9.632;2023-01-09T01:59:46;2.50;;;2.28;;
23745;SDS011;12053;48.878;9.632;2023-01-09T02:02:18;2.35;;;1.88;;
23745;SDS011;12053;48.878;9.632;2023-01-09T02:04:47;2.72;;;2.15;;
23745;SDS011;12053;48.878;9.632;2023-01-09T02:07:15;2.63;;;2.22;;
23745;SDS011;12053;48.878;9.632;2023-01-09T02:09:42;2.92;;;2.63;;
23745;SDS011;12053;48.878;9.632;2023-01-09T02:12:27;3.00;;;2.55;;
23745;SDS011;12053;48.878;9.632;2023-01-09T02:14:58;2.17;;;1.98;;
23745;SDS011;12053;48.878;9.632;2023-01-09T02:17:30;2.13;;;1.52;;
23745;SDS011;12053;48.878;9.632;2023-01-09T02:30:30;1.55;;;1.20;;
23745;SDS011;12053;48.878;9.632;2023-01-09T02:35:44;1.38;;;1.15;;
23745;SDS011;12053;48.878;9.632;2023-01-09T02:40:54;1.65;;;1.20;;
23745;SDS011;12053;48.878;9.632;2023-01-09T02:43:22;1.40;;;1.30;;
23745;SDS011;12053;48.878;9.632;2023-01-09T02:45:50;1.40;;;1.30;;
23745;SDS011;12053;48.878;9.632;2023-01-09T02:48:17;1.13;;;1.02;;
23745;SDS011;12053;48.878;9.632;2023-01-09T02:56:01;1.50;;;1.38;;
23745;SDS011;12053;48.878;9.632;2023-01-09T02:58:38;1.48;;;1.30;;
23745;SDS011;12053;48.878;9.632;2023-01-09T03:03:45;1.42;;;1.33;;
23745;SDS011;12053;48.878;9.632;2023-01-09T03:08:59;1.30;;;1.20;;
23745;SDS011;12053;48.878;9.632;2023-01-09T03:11:27;1.55;;;1.10;;
23745;SDS011;12053;48.878;9.632;2023-01-09T03:13:58;1.40;;;1.30;;
23745;SDS011;12053;48.878;9.632;2023-01-09T03:16:33;1.50;;;1.30;;
23745;SDS011;12053;48.878;9.632;2023-01-09T03:19:03;1.45;;;1.35;;
23745;SDS011;12053;48.878;9.632;2023-01-09T03:21:31;1.25;;;1.15;;
23745;SDS011;12053;48.878;9.632;2023-01-09T03:23:59;1.30;;;1.20;;
23745;SDS011;12053;48.878;9.632;2023-01-09T03:26:27;1.30;;;1.20;;
23745;SDS011;12053;48.878;9.632;2023-01-09T03:28:55;1.20;;;1.02;;
23745;SDS011;12053;48.878;9.632;2023-01-09T03:31:22;1.30;;;1.20;;
23745;SDS011;12053;48.878;9.632;2023-01-09T03:33:49;1.23;;;1.08;;
23745;SDS011;12053;48.878;9.632;2023-01-09T03:36:17;1.33;;;1.20;;
23745;SDS011;12053;48.878;9.632;2023-01-09T03:38:44;1.42;;;1.33;;
23745;SDS011;12053;48.878;9.632;2023-01-09T03:41:12;1.65;;;1.55;;
23745;SDS011;12053;48.878;9.632;2023-01-09T03:43:39;1.63;;;1.25;;
23745;SDS011;12053;48.878;9.632;2023-01-09T03:46:06;1.48;;;1.20;;
23745;SDS011;12053;48.878;9.632;2023-01-09T03:48:33;1.05;;;1.05;;
23745;SDS011;12053;48.878;9.632;2023-01-09T03:51:00;1.60;;;1.30;;
23745;SDS011;12053;48.878;9.632;2023-01-09T03:53:28;1.38;;;1.10;;
23745;SDS011;12053;48.878;9.632;2023-01-09T03:55:55;0.95;;;0.95;;
23745;SDS011;12053;48.878;9.632;2023-01-09T03:58:24;1.13;;;0.90;;
23745;SDS011;12053;48.878;9.632;2023-01-09T04:00:56;1.20;;;1.05;;
23745;SDS011;12053;48.878;9.632;2023-01-09T04:03:23;1.17;;;0.93;;
23745;SDS011;12053;48.878;9.632;2023-01-09T04:05:50;1.50;;;1.05;;
23745;SDS011;12053;48.878;9.632;2023-01-09T04:08:18;1.00;;;1.00;;
23745;SDS011;12053;48.878;9.632;2023-01-09T04:10:46;1.85;;;1.08;;
23745;SDS011;12053;48.878;9.632;2023-01-09T04:13:13;0.60;;;0.60;;
23745;SDS011;12053;48.878;9.632;2023-01-09T04:15:40;0.60;;;0.60;;
23745;SDS011;12053;48.878;9.632;2023-01-09T04:18:07;0.40;;;0.40;;
23745;SDS011;12053;48.878;9.632;2023-01-09T04:20:35;0.50;;;0.50;;
23745;SDS011;12053;48.878;9.632;2023-01-09T04:23:02;0.50;;;0.50;;
23745;SDS011;12053;48.878;9.632;2023-01-09T04:25:29;1.45;;;0.40;;
23745;SDS011;12053;48.878;9.632;2023-01-09T04:27:57;1.42;;;0.40;;
23745;SDS011;12053;48.878;9.632;2023-01-09T04:30:24;0.30;;;0.30;;
23745;SDS011;12053;48.878;9.632;2023-01-09T04:32:51;1.05;;;0.28;;
23745;SDS011;12053;48.878;9.632;2023-01-09T04:35:18;1.23;;;0.40;;
23745;SDS011;12053;48.878;9.632;2023-01-09T04:37:46;0.93;;;0.38;;
23745;SDS011;12053;48.878;9.632;2023-01-09T04:40:13;0.40;;;0.40;;
23745;SDS011;12053;48.878;9.632;2023-01-09T04:42:40;0.28;;;0.28;;
23745;SDS011;12053;48.878;9.632;2023-01-09T04:45:08;0.30;;;0.30;;
23745;SDS011;12053;48.878;9.632;2023-01-09T04:47:36;0.30;;;0.30;;
23745;SDS011;12053;48.878;9.632;2023-01-09T04:50:04;0.85;;;0.30;;
23745;SDS011;12053;48.878;9.632;2023-01-09T04:52:31;0.20;;;0.20;;
23745;SDS011;12053;48.878;9.632;2023-01-09T04:54:58;0.20;;;0.20;;
23745;SDS011;12053;48.878;9.632;2023-01-09T04:57:25;0.20;;;0.20;;
23745;SDS011;12053;48.878;9.632;2023-01-09T04:59:53;0.20;;;0.20;;
23745;SDS011;12053;48.878;9.632;2023-01-09T05:02:20;0.50;;;0.50;;
23745;SDS011;12053;48.878;9.632;2023-01-09T05:04:47;2.97;;;0.95;;
23745;SDS011;12053;48.878;9.632;2023-01-09T05:07:14;0.40;;;0.40;;
23745;SDS011;12053;48.878;9.632;2023-01-09T05:09:41;0.60;;;0.60;;
23745;SDS011;12053;48.878;9.632;2023-01-09T05:12:09;0.60;;;0.60;;
23745;SDS011;12053;48.878;9.632;2023-01-09T05:14:36;1.08;;;0.63;;
23745;SDS011;12053;48.878;9.632;2023-01-09T05:17:04;1.13;;;0.73;;
23745;SDS011;12053;48.878;9.632;2023-01-09T05:19:31;0.52;;;0.50;;
23745;SDS011;12053;48.878;9.632;2023-01-09T05:21:59;1.38;;;1.27;;
23745;SDS011;12053;48.878;9.632;2023-01-09T05:24:27;0.40;;;0.40;;
23745;SDS011;12053;48.878;9.632;2023-01-09T05:26:54;0.73;;;0.47;;
23745;SDS011;12053;48.878;9.632;2023-01-09T05:29:21;0.52;;;0.50;;
23745;SDS011;12053;48.878;9.632;2023-01-09T05:31:48;1.23;;;0.85;;
23745;SDS011;12053;48.878;9.632;2023-01-09T05:34:18;3.08;;;1.67;;
23745;SDS011;12053;48.878;9.632;2023-01-09T05:36:45;2.88;;;1.58;;
23745;SDS011;12053;48.878;9.632;2023-01-09T05:39:12;18.67;;;9.55;;
23745;SDS011;12053;48.878;9.632;2023-01-09T05:41:40;6.93;;;3.50;;
23745;SDS011;12053;48.878;9.632;2023-01-09T05:44:07;4.57;;;2.88;;
23745;SDS011;12053;48.878;9.632;2023-01-09T05:46:34;1.40;;;0.70;;
23745;SDS011;12053;48.878;9.632;2023-01-09T05:49:01;0.57;;;0.57;;
23745;SDS011;12053;48.878;9.632;2023-01-09T05:51:28;0.40;;;0.40;;
23745;SDS011;12053;48.878;9.632;2023-01-09T05:53:59;1.23;;;0.60;;
23745;SDS011;12053;48.878;9.632;2023-01-09T05:56:28;1.23;;;0.52;;
23745;SDS011;12053;48.878;9.632;2023-01-09T05:58:55;2.28;;;0.75;;
23745;SDS011;12053;48.878;9.632;2023-01-09T06:01:22;0.43;;;0.43;;
23745;SDS011;12053;48.878;9.632;2023-01-09T06:03:50;0.52;;;0.50;;
23745;SDS011;12053;48.878;9.632;2023-01-09T06:06:17;0.43;;;0.40;;
23745;SDS011;12053;48.878;9.632;2023-01-09T06:08:44;2.40;;;0.55;;
23745;SDS011;12053;48.878;9.632;2023-01-09T06:11:11;2.60;;;0.60;;
23745;SDS011;12053;48.878;9.632;2023-01-09T06:13:38;0.85;;;0.50;;
23745;SDS011;12053;48.878;9.632;2023-01-09T06:16:06;1.33;;;0.50;;
23745;SDS011;12053;48.878;9.632;2023-01-09T06:18:33;3.25;;;0.77;;
23745;SDS011;12053;48.878;9.632;2023-01-09T06:21:01;4.68;;;0.80;;
23745;SDS011;12053;48.878;9.632;2023-01-09T06:23:28;3.22;;;1.33;;
23745;SDS011;12053;48.878;9.632;2023-01-09T06:25:55;10.00;;;3.33;;
23745;SDS011;12053;48.878;9.632;2023-01-09T06:28:22;3.45;;;1.95;;
23745;SDS011;12053;48.878;9.632;2023-01-09T06:30:50;2.25;;;1.70;;
23745;SDS011;12053;48.878;9.632;2023-01-09T06:33:17;1.90;;;1.30;;
23745;SDS011;12053;48.878;9.632;2023-01-09T06:35:45;1.20;;;1.10;;
23745;SDS011;12053;48.878;9.632;2023-01-09T06:38:12;4.05;;;1.30;;
23745;SDS011;12053;48.878;9.632;2023-01-09T06:40:39;2.35;;;1.40;;
23745;SDS011;12053;48.878;9.632;2023-01-09T06:43:06;1.05;;;0.90;;
23745;SDS011;12053;48.878;9.632;2023-01-09T06:45:33;0.63;;;0.63;;
23745;SDS011;12053;48.878;9.632;2023-01-09T06:48:01;6.65;;;4.10;;
23745;SDS011;12053;48.878;9.632;2023-01-09T06:50:28;9.85;;;5.30;;
23745;SDS011;12053;48.878;9.632;2023-01-09T06:52:55;7.47;;;4.35;;
23745;SDS011;12053;48.878;9.632;2023-01-09T06:55:22;3.47;;;2.60;;
23745;SDS011;12053;48.878;9.632;2023-01-09T06:57:51;3.33;;;1.60;;
23745;SDS011;12053;48.878;9.632;2023-01-09T07:00:18;2.05;;;1.20;;
23745;SDS011;12053;48.878;9.632;2023-01-09T07:02:46;3.25;;;1.30;;
23745;SDS011;12053;48.878;9.632;2023-01-09T07:05:13;4.80;;;1.50;;
23745;SDS011;12053;48.878;9.632;2023-01-09T07:07:40;1.58;;;1.40;;
23745;SDS011;12053;48.878;9.632;2023-01-09T07:10:08;4.25;;;1.25;;
23745;SDS011;12053;48.878;9.632;2023-01-09T07:12:36;4.22;;;1.25;;
23745;SDS011;12053;48.878;9.632;2023-01-09T07:15:03;4.88;;;1.55;;
23745;SDS011;12053;48.878;9.632;2023-01-09T07:17:30;2.40;;;1.40;;
23745;SDS011;12053;48.878;9.632;2023-01-09T07:19:58;3.88;;;2.03;;
23745;SDS011;12053;48.878;9.632;2023-01-09T07:22:25;6.05;;;3.42;;
23745;SDS011;12053;48.878;9.632;2023-01-09T07:24:53;2.33;;;1.40;;
23745;SDS011;12053;48.878;9.632;2023-01-09T07:27:20;4.60;;;2.60;;
23745;SDS011;12053;48.878;9.632;2023-01-09T07:29:47;5.85;;;3.55;;
23745;SDS011;12053;48.878;9.632;2023-01-09T07:32:16;9.13;;;2.80;;
23745;SDS011;12053;48.878;9.632;2023-01-09T07:34:43;5.85;;;1.90;;
23745;SDS011;12053;48.878;9.632;2023-01-09T07:37:10;4.22;;;1.67;;
23745;SDS011;12053;48.878;9.632;2023-01-09T07:39:38;8.40;;;3.38;;
23745;SDS011;12053;48.878;9.632;2023-01-09T07:42:05;9.48;;;3.63;;
23745;SDS011;12053;48.878;9.632;2023-01-09T07:44:32;13.73;;;4.45;;
23745;SDS011;12053;48.878;9.632;2023-01-09T07:46:59;22.15;;;9.25;;
23745;SDS011;12053;48.878;9.632;2023-01-09T07:49:26;3.85;;;1.30;;
23745;SDS011;12053;48.878;9.632;2023-01-09T07:51:54;4.85;;;1.67;;
23745;SDS011;12053;48.878;9.632;2023-01-09T07:54:21;4.80;;;1.45;;
23745;SDS011;12053;48.878;9.632;2023-01-09T07:56:48;3.00;;;0.80;;
23745;SDS011;12053;48.878;9.632;2023-01-09T07:59:15;0.85;;;0.80;;
23745;SDS011;12053;48.878;9.632;2023-01-09T08:01:43;1.45;;;0.80;;
23745;SDS011;12053;48.878;9.632;2023-01-09T08:04:10;3.78;;;1.10;;
23745;SDS011;12053;48.878;9.632;2023-01-09T08:06:37;2.42;;;0.98;;
23745;SDS011;12053;48.878;9.632;2023-01-09T08:09:04;4.47;;;1.00;;
23745;SDS011;12053;48.878;9.632;2023-01-09T08:11:32;6.15;;;1.40;;
23745;SDS011;12053;48.878;9.632;2023-01-09T08:13:59;3.05;;;1.15;;
23745;SDS011;12053;48.878;9.632;2023-01-09T08:16:26;1.95;;;0.90;;
23745;SDS011;12053;48.878;9.632;2023-01-09T08:18:53;14.32;;;1.15;;
23745;SDS011;12053;48.878;9.632;2023-01-09T08:21:21;3.28;;;0.77;;
23745;SDS011;12053;48.878;9.632;2023-01-09T08:23:48;3.67;;;0.98;;
23745;SDS011;12053;48.878;9.632;2023-01-09T08:26:15;2.55;;;1.23;;
23745;SDS011;12053;48.878;9.632;2023-01-09T08:28:43;2.30;;;1.00;;
23745;SDS011;12053;48.878;9.632;2023-01-09T08:31:11;3.08;;;1.77;;
23745;SDS011;12053;48.878;9.632;2023-01-09T08:33:38;4.00;;;1.17;;
23745;SDS011;12053;48.878;9.632;2023-01-09T08:36:05;3.40;;;1.83;;
23745;SDS011;12053;48.878;9.632;2023-01-09T08:38:33;3.78;;;1.23;;
23745;SDS011;12053;48.878;9.632;2023-01-09T08:41:00;3.60;;;1.17;;
23745;SDS011;12053;48.878;9.632;2023-01-09T08:43:47;2.10;;;0.60;;
23745;SDS011;12053;48.878;9.632;2023-01-09T08:46:33;2.33;;;0.80;;
23745;SDS011;12053;48.878;9.632;2023-01-09T08:49:18;4.10;;;1.20;;
23745;SDS011;12053;48.878;9.632;2023-01-09T08:51:46;3.53;;;1.30;;
23745;SDS011;12053;48.878;9.632;2023-01-09T08:54:13;2.80;;;1.30;;
23745;SDS011;12053;48.878;9.632;2023-01-09T08:56:40;3.53;;;1.25;;
23745;SDS011;12053;48.878;9.632;2023-01-09T08:59:08;2.03;;;1.08;;
23745;SDS011;12053;48.878;9.632;2023-01-09T09:01:36;2.47;;;0.65;;
23745;SDS011;12053;48.878;9.632;2023-01-09T09:04:03;4.30;;;1.00;;
23745;SDS011;12053;48.878;9.632;2023-01-09T09:06:31;3.53;;;1.10;;
23745;SDS011;12053;48.878;9.632;2023-01-09T09:08:59;2.33;;;0.80;;
23745;SDS011;12053;48.878;9.632;2023-01-09T09:11:29;6.30;;;1.85;;
23745;SDS011;12053;48.878;9.632;2023-01-09T09:13:56;3.65;;;1.10;;
23745;SDS011;12053;48.878;9.632;2023-01-09T09:16:24;2.90;;;1.05;;
23745;SDS011;12053;48.878;9.632;2023-01-09T09:18:52;3.50;;;0.90;;
23745;SDS011;12053;48.878;9.632;2023-01-09T09:21:19;2.47;;;1.10;;
23745;SDS011;12053;48.878;9.632;2023-01-09T09:23:46;4.25;;;0.90;;
23745;SDS011;12053;48.878;9.632;2023-01-09T09:26:13;2.25;;;1.10;;
23745;SDS011;12053;48.878;9.632;2023-01-09T09:28:41;4.97;;;0.82;;
23745;SDS011;12053;48.878;9.632;2023-01-09T09:31:08;3.88;;;1.38;;
23745;SDS011;12053;48.878;9.632;2023-01-09T09:33:35;2.17;;;0.80;;
23745;SDS011;12053;48.878;9.632;2023-01-09T09:36:02;0.50;;;0.50;;
23745;SDS011;12053;48.878;9.632;2023-01-09T09:38:29;1.77;;;0.90;;
23745;SDS011;12053;48.878;9.632;2023-01-09T09:47:05;2.78;;;1.00;;
23745;SDS011;12053;48.878;9.632;2023-01-09T09:54:39;1.23;;;0.57;;
23745;SDS011;12053;48.878;9.632;2023-01-09T09:57:09;1.73;;;0.90;;
23745;SDS011;12053;48.878;9.632;2023-01-09T09:59:38;3.40;;;1.00;;
23745;SDS011;12053;48.878;9.632;2023-01-09T10:04:36;2.38;;;0.90;;
23745;SDS011;12053;48.878;9.632;2023-01-09T10:07:07;5.70;;;1.08;;
23745;SDS011;12053;48.878;9.632;2023-01-09T10:09:47;4.07;;;0.82;;
23745;SDS011;12053;48.878;9.632;2023-01-09T10:34:03;3.55;;;0.90;;
23745;SDS011;12053;48.878;9.632;2023-01-09T10:39:12;1.55;;;0.85;;
23745;SDS011;12053;48.878;9.632;2023-01-09T10:44:33;6.03;;;1.10;;
23745;SDS011;12053;48.878;9.632;2023-01-09T10:47:46;2.75;;;1.00;;
23745;SDS011;12053;48.878;9.632;2023-01-09T10:49:54;4.38;;;1.00;;
23745;SDS011;12053;48.878;9.632;2023-01-09T10:52:27;3.30;;;1.58;;
23745;SDS011;12053;48.878;9.632;2023-01-09T10:54:57;3.92;;;1.23;;
23745;SDS011;12053;48.878;9.632;2023-01-09T10:59:54;3.03;;;0.93;;
23745;SDS011;12053;48.878;9.632;2023-01-09T11:02:29;4.20;;;1.30;;
23745;SDS011;12053;48.878;9.632;2023-01-09T11:04:57;6.03;;;1.77;;
23745;SDS011;12053;48.878;9.632;2023-01-09T11:07:25;5.57;;;1.40;;
23745;SDS011;12053;48.878;9.632;2023-01-09T11:12:25;3.45;;;1.58;;
23745;SDS011;12053;48.878;9.632;2023-01-09T11:14:54;4.32;;;1.10;;
23745;SDS011;12053;48.878;9.632;2023-01-09T11:17:34;21.02;;;8.75;;
23745;SDS011;12053;48.878;9.632;2023-01-09T11:20:03;50.22;;;20.30;;
23745;SDS011;12053;48.878;9.632;2023-01-09T11:22:42;8.07;;;3.85;;
23745;SDS011;12053;48.878;9.632;2023-01-09T11:25:13;12.90;;;4.70;;
23745;SDS011;12053;48.878;9.632;2023-01-09T11:27:41;20.10;;;8.50;;
23745;SDS011;12053;48.878;9.632;2023-01-09T11:32:35;10.30;;;3.28;;
23745;SDS011;12053;48.878;9.632;2023-01-09T11:35:03;5.93;;;1.70;;
23745;SDS011;12053;48.878;9.632;2023-01-09T11:37:31;9.93;;;3.47;;
23745;SDS011;12053;48.878;9.632;2023-01-09T11:39:59;2.75;;;0.88;;
23745;SDS011;12053;48.878;9.632;2023-01-09T11:42:27;3.63;;;0.73;;
23745;SDS011;12053;48.878;9.632;2023-01-09T11:47:44;2.83;;;0.95;;
23745;SDS011;12053;48.878;9.632;2023-01-09T11:52:43;1.80;;;0.93;;
23745;SDS011;12053;48.878;9.632;2023-01-09T11:55:11;4.15;;;0.93;;
23745;SDS011;12053;48.878;9.632;2023-01-09T11:57:39;2.30;;;0.70;;
23745;SDS011;12053;48.878;9.632;2023-01-09T12:00:22;3.83;;;1.10;;
23745;SDS011;12053;48.878;9.632;2023-01-09T12:05:41;3.88;;;0.90;;
23745;SDS011;12053;48.878;9.632;2023-01-09T12:13:27;4.60;;;0.98;;
23745;SDS011;12053;48.878;9.632;2023-01-09T12:24:04;6.60;;;1.40;;
23745;SDS011;12053;48.878;9.632;2023-01-09T12:26:47;5.18;;;1.15;;
23745;SDS011;12053;48.878;9.632;2023-01-09T12:29:34;5.47;;;1.35;;
23745;SDS011;12053;48.878;9.632;2023-01-09T12:34:44;4.47;;;1.08;;
23745;SDS011;12053;48.878;9.632;2023-01-09T12:47:56;3.72;;;1.35;;
23745;SDS011;12053;48.878;9.632;2023-01-09T12:55:38;1.05;;;0.75;;
23745;SDS011;12053;48.878;9.632;2023-01-09T12:58:25;3.15;;;1.25;;
23745;SDS011;12053;48.878;9.632;2023-01-09T13:00:53;3.55;;;1.02;;
23745;SDS011;12053;48.878;9.632;2023-01-09T13:03:23;3.42;;;0.90;;
23745;SDS011;12053;48.878;9.632;2023-01-09T13:05:54;2.25;;;1.15;;
23745;SDS011;12053;48.878;9.632;2023-01-09T13:08:36;2.58;;;1.52;;
23745;SDS011;12053;48.878;9.632;2023-01-09T13:16:26;4.30;;;1.38;;
23745;SDS011;12053;48.878;9.632;2023-01-09T13:18:57;3.97;;;1.35;;
23745;SDS011;12053;48.878;9.632;2023-01-09T13:21:25;9.45;;;2.40;;
23745;SDS011;12053;48.878;9.632;2023-01-09T13:26:41;4.78;;;1.10;;
23745;SDS011;12053;48.878;9.632;2023-01-09T13:29:21;7.60;;;1.05;;
23745;SDS011;12053;48.878;9.632;2023-01-09T13:34:35;5.18;;;1.52;;
23745;SDS011;12053;48.878;9.632;2023-01-09T13:37:03;4.55;;;1.92;;
23745;SDS011;12053;48.878;9.632;2023-01-09T13:39:32;3.53;;;0.98;;
23745;SDS011;12053;48.878;9.632;2023-01-09T13:42:03;4.18;;;1.00;;
23745;SDS011;12053;48.878;9.632;2023-01-09T13:44:54;6.50;;;1.75;;
23745;SDS011;12053;48.878;9.632;2023-01-09T13:47:26;7.50;;;4.07;;
23745;SDS011;12053;48.878;9.632;2023-01-09T13:49:58;3.72;;;1.85;;
23745;SDS011;12053;48.878;9.632;2023-01-09T13:57:24;1.25;;;0.82;;
23745;SDS011;12053;48.878;9.632;2023-01-09T13:59:57;1.65;;;1.00;;
23745;SDS011;12053;48.878;9.632;2023-01-09T14:05:02;3.60;;;1.30;;
23745;SDS011;12053;48.878;9.632;2023-01-09T14:07:30;1.90;;;0.77;;
23745;SDS011;12053;48.878;9.632;2023-01-09T14:09:59;5.05;;;2.42;;
23745;SDS011;12053;48.878;9.632;2023-01-09T14:12:27;4.63;;;2.85;;
23745;SDS011;12053;48.878;9.632;2023-01-09T14:14:57;7.47;;;4.85;;
23745;SDS011;12053;48.878;9.632;2023-01-09T14:17:29;5.05;;;2.92;;
23745;SDS011;12053;48.878;9.632;2023-01-09T14:19:59;6.30;;;2.20;;
23745;SDS011;12053;48.878;9.632;2023-01-09T14:22:30;4.13;;;1.65;;
23745;SDS011;12053;48.878;9.632;2023-01-09T14:25:17;3.92;;;1.67;;
23745;SDS011;12053;48.878;9.632;2023-01-09T14:27:48;5.00;;;1.00;;
23745;SDS011;12053;48.878;9.632;2023-01-09T14:32:56;65.22;;;25.33;;
23745;SDS011;12053;48.878;9.632;2023-01-09T14:40:49;4.95;;;1.63;;
23745;SDS011;12053;48.878;9.632;2023-01-09T14:43:27;2.17;;;1.10;;
23745;SDS011;12053;48.878;9.632;2023-01-09T14:46:01;2.08;;;0.73;;
23745;SDS011;12053;48.878;9.632;2023-01-09T14:48:29;1.80;;;0.70;;
23745;SDS011;12053;48.878;9.632;2023-01-09T14:50:57;1.33;;;0.70;;
23745;SDS011;12053;48.878;9.632;2023-01-09T14:53:26;0.98;;;0.70;;
23745;SDS011;12053;48.878;9.632;2023-01-09T14:55:59;1.38;;;0.77;;
23745;SDS011;12053;48.878;9.632;2023-01-09T15:03:38;1.77;;;1.08;;
23745;SDS011;12053;48.878;9.632;2023-01-09T15:06:19;1.10;;;1.00;;
23745;SDS011;12053;48.878;9.632;2023-01-09T15:08:53;2.92;;;1.70;;
23745;SDS011;12053;48.878;9.632;2023-01-09T15:11:21;5.65;;;1.48;;
23745;SDS011;12053;48.878;9.632;2023-01-09T15:13:49;5.22;;;1.60;;
23745;SDS011;12053;48.878;9.632;2023-01-09T15:16:18;3.92;;;1.60;;
23745;SDS011;12053;48.878;9.632;2023-01-09T15:18:47;4.50;;;2.28;;
23745;SDS011;12053;48.878;9.632;2023-01-09T15:21:21;3.67;;;2.60;;
23745;SDS011;12053;48.878;9.632;2023-01-09T15:23:49;1.90;;;1.10;;
23745;SDS011;12053;48.878;9.632;2023-01-09T15:26:29;6.55;;;3.63;;
23745;SDS011;12053;48.878;9.632;2023-01-09T15:28:59;8.75;;;4.05;;
23745;SDS011;12053;48.878;9.632;2023-01-09T15:31:27;3.97;;;2.22;;
23745;SDS011;12053;48.878;9.632;2023-01-09T15:33:54;1.92;;;1.30;;
23745;SDS011;12053;48.878;9.632;2023-01-09T15:36:26;5.15;;;1.70;;
23745;SDS011;12053;48.878;9.632;2023-01-09T15:38:56;2.03;;;1.70;;
23745;SDS011;12053;48.878;9.632;2023-01-09T15:41:25;2.38;;;1.27;;
23745;SDS011;12053;48.878;9.632;2023-01-09T15:44:18;1.63;;;1.20;;
23745;SDS011;12053;48.878;9.632;2023-01-09T15:46:47;3.83;;;1.58;;
23745;SDS011;12053;48.878;9.632;2023-01-09T15:49:15;5.05;;;2.50;;
23745;SDS011;12053;48.878;9.632;2023-01-09T15:51:43;3.85;;;2.38;;
23745;SDS011;12053;48.878;9.632;2023-01-09T15:54:14;7.47;;;3.33;;
23745;SDS011;12053;48.878;9.632;2023-01-09T15:56:43;5.72;;;3.70;;
23745;SDS011;12053;48.878;9.632;2023-01-09T16:03:37;5.45;;;1.70;;
23745;SDS011;12053;48.878;9.632;2023-01-09T16:06:08;5.90;;;2.83;;
23745;SDS011;12053;48.878;9.632;2023-01-09T16:08:37;7.28;;;3.17;;
23745;SDS011;12053;48.878;9.632;2023-01-09T16:11:06;3.38;;;1.48;;
23745;SDS011;12053;48.878;9.632;2023-01-09T16:13:42;3.08;;;1.52;;
23745;SDS011;12053;48.878;9.632;2023-01-09T16:16:10;3.33;;;1.80;;
23745;SDS011;12053;48.878;9.632;2023-01-09T16:18:39;3.97;;;2.28;;
23745;SDS011;12053;48.878;9.632;2023-01-09T16:21:22;3.97;;;2.50;;
23745;SDS011;12053;48.878;9.632;2023-01-09T16:23:52;3.45;;;2.00;;
23745;SDS011;12053;48.878;9.632;2023-01-09T16:26:20;4.63;;;1.67;;
23745;SDS011;12053;48.878;9.632;2023-01-09T16:28:48;2.25;;;1.00;;
23745;SDS011;12053;48.878;9.632;2023-01-09T16:31:24;2.42;;;1.27;;
23745;SDS011;12053;48.878;9.632;2023-01-09T16:33:58;1.65;;;1.55;;
23745;SDS011;12053;48.878;9.632;2023-01-09T16:36:25;3.45;;;1.40;;
23745;SDS011;12053;48.878;9.632;2023-01-09T16:38:53;1.15;;;0.93;;
23745;SDS011;12053;48.878;9.632;2023-01-09T16:41:20;4.00;;;1.23;;
23745;SDS011;12053;48.878;9.632;2023-01-09T16:44:07;3.50;;;1.48;;
23745;SDS011;12053;48.878;9.632;2023-01-09T16:46:36;3.53;;;2.17;;
23745;SDS011;12053;48.878;9.632;2023-01-09T16:49:17;13.63;;;6.35;;
23745;SDS011;12053;48.878;9.632;2023-01-09T16:51:46;17.40;;;8.63;;
23745;SDS011;12053;48.878;9.632;2023-01-09T16:54:13;18.75;;;10.40;;
23745;SDS011;12053;48.878;9.632;2023-01-09T16:56:41;24.13;;;12.52;;
23745;SDS011;12053;48.878;9.632;2023-01-09T16:59:12;29.38;;;15.95;;
23745;SDS011;12053;48.878;9.632;2023-01-09T17:01:40;18.85;;;11.32;;
23745;SDS011;12053;48.878;9.632;2023-01-09T17:04:11;4.13;;;2.90;;
23745;SDS011;12053;48.878;9.632;2023-01-09T17:06:39;1.73;;;1.60;;
23745;SDS011;12053;48.878;9.632;2023-01-09T17:09:11;2.70;;;1.20;;
23745;SDS011;12053;48.878;9.632;2023-01-09T17:11:39;2.22;;;1.20;;
23745;SDS011;12053;48.878;9.632;2023-01-09T17:14:06;2.25;;;1.40;;
23745;SDS011;12053;48.878;9.632;2023-01-09T17:16:35;2.95;;;1.50;;
23745;SDS011;12053;48.878;9.632;2023-01-09T17:19:02;2.58;;;1.50;;
23745;SDS011;12053;48.878;9.632;2023-01-09T17:21:30;2.85;;;1.73;;
23745;SDS011;12053;48.878;9.632;2023-01-09T17:23:57;4.72;;;2.28;;
23745;SDS011;12053;48.878;9.632;2023-01-09T17:26:47;5.15;;;2.60;;
23745;SDS011;12053;48.878;9.632;2023-01-09T17:29:34;6.28;;;2.97;;
23745;SDS011;12053;48.878;9.632;2023-01-09T17:32:01;4.07;;;2.40;;